Saint John, WA (99171)

1:13 AM PST on February 12, 2016 (GMT -0800)
St. John Area | | Change Station
CLOSE
Current Station
Personal Weather Station
Location: Thornton, WA
Elevation: 2382 ft
Nearby Weather Stations

Elev 2382 ft 47.07 °N, 117.43 °W | Updated 12 minutes ago

Overcast
Overcast
43.9 °F
Feels Like 38 °F
N
10.0
Wind Variable Wind from ENE
Gusts 12.0 mph

Today
High -- | Low -- °F
--% Chance of Precip.
Yesterday
High -- | Low -- °F
Precip. -- in
Pressure 30.23 in
Visibility 10.0 miles
Clouds Overcast 8000 ft
Windchill 38 °F
Dew Point 41 °F
Humidity 89%
Rainfall 0.00 in
Snow Depth Not available.
7:00 AM 5:09 PM
Waxing Crescent, 19% visible
METAR KPUW 120853Z AUTO 10009KT 10SM OVC080 07/04 A3021 RMK AO2 SLP237 60000 T00670039 56011 TSNO
Pressure 30.23 in
Visibility 10.0 miles
Clouds Overcast 8000 ft
Windchill 38 °F
Dew Point 41 °F
Humidity 89%
Rainfall 0.00 in
Snow Depth Not available.
7:00 AM 5:09 PM
Waxing Crescent, 19% visible
METAR KPUW 120853Z AUTO 10009KT 10SM OVC080 07/04 A3021 RMK AO2 SLP237 60000 T00670039 56011 TSNO

10-Day Weather Forecast

Almanac

Astronomy

Feb. 12, 2016 Rise Set
Actual Time
Civil Twilight
Nautical Twilight
Astronomical Twilight
Moon
Length of Visible Light
Length of Day
Tomorrow will be .
, % of the Moon is Illuminated

Today's Extremes

State Highs State Lows

Community

WunderPhotos

Upload Photos

1,892,286 photos uploaded!

WunderBlog® & News

Nearby

Air Quality

  Air Quality AQ Index Pollutant
Not available.

Snow Depth

Station Depth Elevation

Earthquake Activity

City Distance Mag. Time & Date
Minimum magnitude displayed is 2.5.

Coastal Water Temperatures

Place Temperature

Stations

Nearby Weather Stations

Station Location Temp. Windchill Dew Point Humidity Wind Precip. Elev Updated Type
                   

Watches & Warnings

There are currently no watches in effect.